Time;durP1;ratioP1;P1;durP2;ratioP2;P2;SDS_P1;SDS_P2;PMS_P1;PMS_P2;Temp;Humidity;BMP_temperature;BMP_pressure;BME280_temperature;BME280_humidity;BME280_pressure;Samples;Min_cycle;Max_cycle;Signal;HPM_P1;HPM_P2
2023/04/09 00:01:10;;;;;;;25.57;15.60;;;;;;;;;;5058600;28;20524;-69
2023/04/09 00:03:39;;;;;;;27.70;15.30;;;;;;;;;;5058141;28;20474;-70
2023/04/09 00:06:06;;;;;;;27.33;15.83;;;;;;;;;;5054308;28;20521;-70
2023/04/09 00:08:39;;;;;;;25.10;13.33;;;;;;;;;;5052413;28;20561;-70
2023/04/09 00:11:11;;;;;;;24.63;14.83;;;;;;;;;;5055152;28;20807;-70
2023/04/09 00:13:42;;;;;;;21.57;14.67;;;;;;;;;;5050067;28;20463;-70
2023/04/09 00:16:11;;;;;;;23.43;14.23;;;;;;;;;;5054087;28;20524;-70
2023/04/09 00:18:38;;;;;;;27.03;15.20;;;;;;;;;;5054309;28;21025;-70
2023/04/09 00:21:07;;;;;;;24.73;14.27;;;;;;;;;;5053916;28;20519;-69
2023/04/09 00:23:36;;;;;;;24.87;13.97;;;;;;;;;;5046183;28;20443;-70
2023/04/09 00:26:04;;;;;;;23.93;13.83;;;;;;;;;;5045314;28;20458;-71
2023/04/09 00:28:31;;;;;;;23.27;14.30;;;;;;;;;;5044495;28;20449;-70
2023/04/09 00:31:01;;;;;;;24.50;12.27;;;;;;;;;;5055965;28;20548;-70
2023/04/09 00:33:28;;;;;;;23.90;15.87;;;;;;;;;;5055300;28;20472;-70
2023/04/09 00:35:56;;;;;;;25.10;13.40;;;;;;;;;;5055283;28;20461;-71
2023/04/09 00:38:23;;;;;;;20.47;12.87;;;;;;;;;;5055069;28;20453;-70
2023/04/09 00:40:52;;;;;;;23.30;14.83;;;;;;;;;;5055730;28;20544;-70
2023/04/09 00:43:20;;;;;;;24.10;14.17;;;;;;;;;;5055504;28;20482;-70
2023/04/09 00:45:48;;;;;;;22.60;13.83;;;;;;;;;;5054560;28;20486;-70
2023/04/09 00:48:16;;;;;;;26.20;14.00;;;;;;;;;;5051995;28;20569;-70
2023/04/09 00:50:45;;;;;;;25.37;14.50;;;;;;;;;;5053024;28;20462;-70
2023/04/09 00:53:20;;;;;;;24.20;12.47;;;;;;;;;;5050348;28;20434;-71
2023/04/09 00:55:51;;;;;;;26.80;15.00;;;;;;;;;;5047221;28;20445;-72
2023/04/09 00:58:20;;;;;;;23.67;13.90;;;;;;;;;;5039955;28;20505;-71
2023/04/09 01:00:47;;;;;;;25.20;15.40;;;;;;;;;;5051266;28;20453;-70
2023/04/09 01:03:16;;;;;;;26.33;15.53;;;;;;;;;;5048552;28;20491;-70
2023/04/09 01:05:49;;;;;;;25.17;15.00;;;;;;;;;;5051791;28;20567;-70
2023/04/09 01:08:23;;;;;;;26.67;14.13;;;;;;;;;;5046886;28;20979;-71
2023/04/09 01:10:57;;;;;;;25.40;13.57;;;;;;;;;;5048902;28;20454;-71
2023/04/09 01:13:29;;;;;;;20.97;12.37;;;;;;;;;;5051803;28;20466;-70
2023/04/09 01:15:57;;;;;;;22.20;14.57;;;;;;;;;;5046628;28;20473;-70
2023/04/09 01:18:27;;;;;;;24.93;16.07;;;;;;;;;;5053371;28;20457;-70
2023/04/09 01:20:58;;;;;;;23.60;13.40;;;;;;;;;;5052831;28;20524;-70
2023/04/09 01:23:30;;;;;;;21.53;13.50;;;;;;;;;;5056773;28;20489;-71
2023/04/09 01:26:02;;;;;;;24.53;14.23;;;;;;;;;;5055616;28;20466;-70
2023/04/09 01:28:34;;;;;;;25.20;14.00;;;;;;;;;;5054341;28;20493;-70
2023/04/09 01:31:04;;;;;;;27.53;15.50;;;;;;;;;;5054357;28;20772;-70
2023/04/09 01:33:32;;;;;;;27.53;15.40;;;;;;;;;;5054066;28;20465;-70
2023/04/09 01:35:59;;;;;;;30.10;20.37;;;;;;;;;;5054037;28;20446;-70
2023/04/09 01:38:28;;;;;;;42.17;21.37;;;;;;;;;;5053309;28;20838;-69
2023/04/09 01:40:56;;;;;;;38.33;19.63;;;;;;;;;;5053239;28;20462;-69
2023/04/09 01:43:24;;;;;;;37.00;22.03;;;;;;;;;;5052706;28;20496;-70
2023/04/09 01:45:54;;;;;;;41.73;22.37;;;;;;;;;;5043886;28;20497;-69
2023/04/09 01:48:22;;;;;;;34.77;19.30;;;;;;;;;;5037047;28;20926;-70
2023/04/09 01:50:50;;;;;;;37.40;22.17;;;;;;;;;;5047003;28;20731;-69
2023/04/09 01:53:18;;;;;;;37.40;20.67;;;;;;;;;;5048181;28;20453;-70
2023/04/09 01:55:45;;;;;;;37.63;20.07;;;;;;;;;;5046815;28;20456;-70
2023/04/09 01:58:15;;;;;;;37.80;22.23;;;;;;;;;;5048872;28;20497;-70
2023/04/09 02:00:46;;;;;;;43.00;21.67;;;;;;;;;;5046974;28;20451;-70
2023/04/09 02:03:17;;;;;;;42.80;23.23;;;;;;;;;;5046508;28;20494;-70
2023/04/09 02:05:46;;;;;;;43.80;22.43;;;;;;;;;;5045613;28;20453;-71
2023/04/09 02:08:19;;;;;;;47.63;25.57;;;;;;;;;;5026375;28;20617;-70
2023/04/09 02:10:52;;;;;;;46.90;24.93;;;;;;;;;;5046750;28;20461;-70
2023/04/09 02:13:26;;;;;;;52.23;25.83;;;;;;;;;;5048247;28;20442;-70
2023/04/09 02:15:55;;;;;;;50.50;23.30;;;;;;;;;;5054180;28;20450;-71
2023/04/09 02:18:26;;;;;;;48.17;22.63;;;;;;;;;;5054951;28;20481;-70
2023/04/09 02:20:54;;;;;;;41.23;23.30;;;;;;;;;;5055337;28;20548;-70
2023/04/09 02:23:22;;;;;;;49.40;24.17;;;;;;;;;;5051311;28;20891;-70
2023/04/09 02:25:54;;;;;;;50.83;24.27;;;;;;;;;;5051755;28;20454;-70
2023/04/09 02:28:21;;;;;;;44.47;22.77;;;;;;;;;;5055224;28;20504;-69
2023/04/09 02:30:49;;;;;;;40.03;22.77;;;;;;;;;;5056962;28;20446;-71
2023/04/09 02:33:17;;;;;;;41.67;22.33;;;;;;;;;;5055992;28;20454;-70
2023/04/09 02:35:48;;;;;;;43.87;23.20;;;;;;;;;;5060634;28;20453;-70
2023/04/09 02:38:16;;;;;;;45.90;24.90;;;;;;;;;;5057334;28;20465;-71
2023/04/09 02:40:50;;;;;;;46.07;25.93;;;;;;;;;;5059078;28;20461;-69
2023/04/09 02:43:18;;;;;;;46.83;25.50;;;;;;;;;;5058853;28;20485;-71
2023/04/09 02:45:45;;;;;;;46.27;23.90;;;;;;;;;;5057706;28;20482;-71
2023/04/09 02:48:13;;;;;;;51.50;25.43;;;;;;;;;;5058866;28;20884;-71
2023/04/09 02:50:43;;;;;;;44.43;23.73;;;;;;;;;;5058395;28;20446;-70
2023/04/09 02:53:13;;;;;;;54.70;27.47;;;;;;;;;;5057752;28;20446;-71
2023/04/09 02:55:41;;;;;;;50.47;23.17;;;;;;;;;;5060241;28;20475;-70
2023/04/09 02:58:09;;;;;;;55.83;27.87;;;;;;;;;;5060085;28;20572;-70
2023/04/09 03:00:42;;;;;;;50.03;26.67;;;;;;;;;;5060723;28;20525;-70
2023/04/09 03:03:10;;;;;;;47.43;25.33;;;;;;;;;;5039130;28;20668;-70
2023/04/09 03:05:37;;;;;;;55.40;26.70;;;;;;;;;;5044828;28;20518;-70
2023/04/09 03:08:05;;;;;;;43.43;25.87;;;;;;;;;;5060396;28;20532;-70
2023/04/09 03:10:34;;;;;;;57.10;26.73;;;;;;;;;;5053341;28;20467;-70
2023/04/09 03:13:02;;;;;;;58.57;26.80;;;;;;;;;;5051501;28;20929;-71
2023/04/09 03:15:29;;;;;;;52.23;25.90;;;;;;;;;;5057989;28;20473;-71
2023/04/09 03:17:56;;;;;;;50.47;26.50;;;;;;;;;;5049529;28;20447;-71
2023/04/09 03:20:24;;;;;;;48.53;25.13;;;;;;;;;;5053881;28;20452;-70
2023/04/09 03:22:52;;;;;;;46.80;26.37;;;;;;;;;;5057211;28;20563;-70
2023/04/09 03:25:21;;;;;;;58.57;27.67;;;;;;;;;;5057027;28;20457;-70
2023/04/09 03:27:50;;;;;;;58.53;26.37;;;;;;;;;;5057114;28;20458;-69
2023/04/09 03:30:18;;;;;;;58.10;28.73;;;;;;;;;;5057639;28;20484;-70
2023/04/09 03:32:46;;;;;;;68.47;31.47;;;;;;;;;;5057812;28;20536;-71
2023/04/09 03:35:14;;;;;;;70.93;31.30;;;;;;;;;;5057555;28;20956;-70
2023/04/09 03:37:42;;;;;;;63.13;28.77;;;;;;;;;;5057309;28;21050;-70
2023/04/09 03:40:17;;;;;;;63.97;28.27;;;;;;;;;;5056615;28;20523;-69
2023/04/09 03:42:45;;;;;;;71.90;30.97;;;;;;;;;;5057089;28;20496;-70
2023/04/09 03:45:14;;;;;;;63.03;29.30;;;;;;;;;;5056328;28;20935;-70
2023/04/09 03:47:42;;;;;;;60.67;30.70;;;;;;;;;;5055667;28;20541;-70
2023/04/09 03:50:19;;;;;;;60.27;28.73;;;;;;;;;;5056448;28;20881;-70
2023/04/09 03:52:47;;;;;;;53.93;28.03;;;;;;;;;;5056348;28;20515;-69
2023/04/09 03:55:15;;;;;;;57.00;28.17;;;;;;;;;;5055286;28;20453;-70
2023/04/09 03:57:42;;;;;;;60.00;28.13;;;;;;;;;;5055177;28;20462;-70
2023/04/09 04:00:18;;;;;;;58.03;28.80;;;;;;;;;;5055126;28;20458;-70
2023/04/09 04:02:48;;;;;;;59.63;27.93;;;;;;;;;;5055754;28;20516;-68
2023/04/09 04:05:15;;;;;;;68.53;29.03;;;;;;;;;;5056034;28;20521;-71
2023/04/09 04:07:43;;;;;;;58.80;25.40;;;;;;;;;;5056603;28;20527;-70
2023/04/09 04:10:17;;;;;;;58.37;27.60;;;;;;;;;;5057045;28;20549;-71
2023/04/09 04:12:45;;;;;;;59.00;26.07;;;;;;;;;;5056015;28;20504;-70
2023/04/09 04:15:13;;;;;;;59.77;28.20;;;;;;;;;;5052536;28;20462;-70
2023/04/09 04:17:40;;;;;;;54.53;26.67;;;;;;;;;;5057251;28;20450;-70
2023/04/09 04:20:16;;;;;;;55.50;27.77;;;;;;;;;;5057340;28;20458;-70
2023/04/09 04:22:44;;;;;;;56.07;24.77;;;;;;;;;;5051402;28;20481;-70
2023/04/09 04:25:11;;;;;;;50.57;26.60;;;;;;;;;;5037867;28;20466;-70
2023/04/09 04:27:42;;;;;;;53.23;26.30;;;;;;;;;;5045889;28;20497;-70
2023/04/09 04:30:17;;;;;;;59.00;27.47;;;;;;;;;;5056608;28;20552;-70
2023/04/09 04:32:45;;;;;;;53.97;25.83;;;;;;;;;;5057701;28;20456;-70
2023/04/09 04:35:19;;;;;;;59.10;28.37;;;;;;;;;;5056317;28;20545;-71
2023/04/09 04:37:50;;;;;;;53.00;26.07;;;;;;;;;;5056467;28;20793;-70
2023/04/09 04:40:19;;;;;;;53.30;26.33;;;;;;;;;;5056906;28;21070;-70
2023/04/09 04:42:48;;;;;;;48.43;24.90;;;;;;;;;;5057234;28;21003;-71
2023/04/09 04:45:18;;;;;;;52.93;27.43;;;;;;;;;;5054197;28;20489;-69
2023/04/09 04:47:45;;;;;;;55.93;26.13;;;;;;;;;;5051845;28;20548;-71
2023/04/09 04:50:20;;;;;;;50.67;27.03;;;;;;;;;;5045139;28;20894;-69
2023/04/09 04:52:48;;;;;;;51.70;26.20;;;;;;;;;;5048308;28;20469;-72
2023/04/09 04:55:24;;;;;;;46.93;27.50;;;;;;;;;;5050688;28;20462;-71
2023/04/09 04:57:52;;;;;;;44.53;24.10;;;;;;;;;;5046487;28;20466;-70
2023/04/09 05:00:26;;;;;;;47.80;26.53;;;;;;;;;;5053125;28;21053;-71
2023/04/09 05:02:53;;;;;;;44.87;26.00;;;;;;;;;;5052223;28;20477;-69
2023/04/09 05:05:22;;;;;;;59.97;26.30;;;;;;;;;;5053009;28;20477;-71
2023/04/09 05:07:50;;;;;;;48.80;25.87;;;;;;;;;;5054500;28;20461;-70
2023/04/09 05:10:17;;;;;;;55.27;25.57;;;;;;;;;;5049049;28;20473;-71
2023/04/09 05:12:49;;;;;;;47.53;25.23;;;;;;;;;;5049652;28;20489;-71
2023/04/09 05:15:16;;;;;;;47.20;24.20;;;;;;;;;;5053661;28;20541;-71
2023/04/09 05:17:44;;;;;;;49.80;25.30;;;;;;;;;;5054605;28;20446;-70
2023/04/09 05:20:18;;;;;;;46.97;25.27;;;;;;;;;;5055506;28;20441;-70
2023/04/09 05:22:47;;;;;;;36.00;23.00;;;;;;;;;;5042959;28;20946;-70
2023/04/09 05:25:16;;;;;;;58.43;26.30;;;;;;;;;;5056281;28;20442;-70
2023/04/09 05:27:43;;;;;;;45.47;26.33;;;;;;;;;;5055650;28;20462;-69
2023/04/09 05:30:19;;;;;;;40.10;25.13;;;;;;;;;;5055409;28;20545;-70
2023/04/09 05:32:49;;;;;;;44.87;24.00;;;;;;;;;;5045924;28;20438;-69
2023/04/09 05:35:21;;;;;;;44.33;23.50;;;;;;;;;;5036390;28;20463;-68
2023/04/09 05:37:49;;;;;;;58.33;25.50;;;;;;;;;;5035100;28;20478;-71
2023/04/09 05:40:17;;;;;;;45.87;25.03;;;;;;;;;;5046412;28;20778;-71
2023/04/09 05:42:45;;;;;;;35.53;20.13;;;;;;;;;;5056350;28;20457;-70
2023/04/09 05:45:13;;;;;;;35.60;20.70;;;;;;;;;;5054983;28;20473;-70
2023/04/09 05:47:40;;;;;;;45.97;23.07;;;;;;;;;;5055216;28;20458;-70
2023/04/09 05:50:15;;;;;;;39.93;23.03;;;;;;;;;;5055615;28;20473;-71
2023/04/09 05:52:44;;;;;;;44.27;23.00;;;;;;;;;;5056103;28;20857;-71
2023/04/09 05:55:13;;;;;;;53.20;24.60;;;;;;;;;;5056142;28;20462;-70
2023/04/09 05:57:42;;;;;;;40.93;21.07;;;;;;;;;;5056676;28;20454;-70
2023/04/09 06:00:18;;;;;;;41.50;24.10;;;;;;;;;;5057185;28;20470;-69
2023/04/09 06:02:46;;;;;;;47.83;24.37;;;;;;;;;;5056136;28;20468;-71
2023/04/09 06:05:14;;;;;;;40.87;25.90;;;;;;;;;;5055386;28;20477;-70
2023/04/09 06:07:41;;;;;;;44.93;23.40;;;;;;;;;;5053551;28;20482;-71
2023/04/09 06:10:21;;;;;;;49.27;23.73;;;;;;;;;;5054808;28;20450;-70
2023/04/09 06:12:49;;;;;;;43.73;22.10;;;;;;;;;;5055119;28;20450;-70
2023/04/09 06:15:17;;;;;;;41.50;23.43;;;;;;;;;;5053885;28;20453;-71
2023/04/09 06:17:44;;;;;;;46.20;24.10;;;;;;;;;;5053461;28;20493;-71
2023/04/09 06:20:18;;;;;;;45.30;23.70;;;;;;;;;;5052924;28;21197;-71
2023/04/09 06:22:45;;;;;;;39.60;23.60;;;;;;;;;;5051917;28;20469;-69
2023/04/09 06:25:13;;;;;;;38.80;21.93;;;;;;;;;;5052497;28;20485;-71
2023/04/09 06:27:40;;;;;;;41.70;23.60;;;;;;;;;;5053609;28;20469;-71
2023/04/09 06:30:15;;;;;;;47.30;23.90;;;;;;;;;;5053002;28;20553;-71
2023/04/09 06:32:44;;;;;;;43.60;22.20;;;;;;;;;;5053496;28;20476;-71
2023/04/09 06:35:12;;;;;;;44.30;23.93;;;;;;;;;;5053846;28;20870;-72
2023/04/09 06:37:39;;;;;;;44.30;22.37;;;;;;;;;;5055078;28;20549;-71
2023/04/09 06:40:08;;;;;;;45.30;23.30;;;;;;;;;;5054319;28;20461;-72
2023/04/09 06:42:35;;;;;;;48.23;22.63;;;;;;;;;;5054266;28;20473;-70
2023/04/09 06:45:07;;;;;;;47.30;23.80;;;;;;;;;;5053019;28;20502;-71
2023/04/09 06:47:36;;;;;;;42.27;26.13;;;;;;;;;;5052784;28;20457;-71
2023/04/09 06:50:04;;;;;;;41.77;24.03;;;;;;;;;;5052679;28;20454;-70
2023/04/09 06:52:32;;;;;;;48.27;24.97;;;;;;;;;;5052751;28;20447;-71
2023/04/09 06:55:01;;;;;;;42.90;24.70;;;;;;;;;;5052558;28;20456;-70
2023/04/09 06:57:29;;;;;;;48.77;26.20;;;;;;;;;;5053450;28;20460;-71
2023/04/09 06:59:56;;;;;;;43.37;23.77;;;;;;;;;;5050590;28;20486;-70
2023/04/09 07:02:24;;;;;;;46.30;24.87;;;;;;;;;;5054404;28;20473;-71
2023/04/09 07:04:53;;;;;;;40.87;23.13;;;;;;;;;;5054565;28;20492;-70
2023/04/09 07:07:22;;;;;;;46.20;25.30;;;;;;;;;;5053766;28;20483;-70
2023/04/09 07:09:50;;;;;;;45.03;25.87;;;;;;;;;;5055093;28;20461;-70
2023/04/09 07:12:26;;;;;;;44.97;24.87;;;;;;;;;;5054918;28;20450;-70
2023/04/09 07:14:54;;;;;;;46.23;26.90;;;;;;;;;;5054107;28;20520;-70
2023/04/09 07:17:22;;;;;;;43.77;24.30;;;;;;;;;;5054993;28;20466;-70
2023/04/09 07:19:50;;;;;;;48.13;26.93;;;;;;;;;;5056030;28;20454;-70
2023/04/09 07:22:19;;;;;;;40.60;23.70;;;;;;;;;;5059225;28;20479;-71
2023/04/09 07:24:52;;;;;;;49.27;23.30;;;;;;;;;;5057158;28;20596;-71
2023/04/09 07:27:22;;;;;;;38.67;21.77;;;;;;;;;;5058377;28;20454;-72
2023/04/09 07:29:49;;;;;;;43.70;24.30;;;;;;;;;;5059012;28;20450;-71
2023/04/09 07:32:20;;;;;;;41.53;23.90;;;;;;;;;;5059762;28;20764;-71
2023/04/09 07:34:50;;;;;;;44.80;23.63;;;;;;;;;;5058932;28;20465;-71
2023/04/09 07:37:20;;;;;;;41.43;23.73;;;;;;;;;;5058435;28;20527;-70
2023/04/09 07:39:48;;;;;;;38.77;23.87;;;;;;;;;;5059023;28;20465;-71
2023/04/09 07:42:18;;;;;;;44.00;25.17;;;;;;;;;;5059038;28;20437;-71
2023/04/09 07:44:46;;;;;;;43.40;26.20;;;;;;;;;;5059122;28;20493;-70
2023/04/09 07:47:17;;;;;;;41.97;24.03;;;;;;;;;;5057118;28;20465;-71
2023/04/09 07:49:44;;;;;;;47.90;22.33;;;;;;;;;;5057548;28;20878;-71
2023/04/09 07:52:13;;;;;;;36.53;22.80;;;;;;;;;;5055984;28;20504;-71
2023/04/09 07:54:42;;;;;;;35.33;22.47;;;;;;;;;;5055845;28;20515;-71
2023/04/09 07:57:09;;;;;;;40.40;22.00;;;;;;;;;;5041588;28;20468;-71
2023/04/09 07:59:37;;;;;;;36.23;22.20;;;;;;;;;;5035677;28;20478;-71
2023/04/09 08:02:10;;;;;;;34.23;21.67;;;;;;;;;;5047441;28;20453;-70
2023/04/09 08:04:37;;;;;;;33.30;20.00;;;;;;;;;;5055190;28;20490;-71
2023/04/09 08:07:07;;;;;;;36.33;21.17;;;;;;;;;;5055042;28;20493;-71
2023/04/09 08:09:35;;;;;;;37.53;21.40;;;;;;;;;;5055459;28;20508;-71
2023/04/09 08:12:06;;;;;;;36.73;21.87;;;;;;;;;;5056803;28;20501;-72
2023/04/09 08:14:34;;;;;;;32.67;22.37;;;;;;;;;;5055992;28;20476;-74
2023/04/09 08:17:04;;;;;;;36.30;21.00;;;;;;;;;;5054936;28;20481;-71
2023/04/09 08:19:43;;;;;;;35.77;20.73;;;;;;;;;;5054886;28;20548;-71
2023/04/09 08:22:10;;;;;;;31.20;19.03;;;;;;;;;;5055731;28;20477;-71
2023/04/09 08:24:42;;;;;;;30.73;20.03;;;;;;;;;;5053984;28;20493;-72
2023/04/09 08:27:12;;;;;;;28.53;19.40;;;;;;;;;;5053215;28;20458;-72
2023/04/09 08:29:41;;;;;;;30.13;18.63;;;;;;;;;;5053558;28;20465;-72
2023/04/09 08:32:08;;;;;;;30.83;17.47;;;;;;;;;;5055941;28;20740;-72
2023/04/09 08:34:36;;;;;;;31.50;18.80;;;;;;;;;;5053453;28;20461;-72
2023/04/09 08:37:04;;;;;;;25.40;16.57;;;;;;;;;;5053811;28;20469;-72
2023/04/09 08:39:35;;;;;;;29.47;18.87;;;;;;;;;;5054302;28;20887;-71
2023/04/09 08:42:02;;;;;;;30.30;17.63;;;;;;;;;;5054804;28;20473;-71
2023/04/09 08:44:31;;;;;;;29.73;18.10;;;;;;;;;;5054865;28;20520;-71
2023/04/09 08:47:00;;;;;;;28.53;16.10;;;;;;;;;;5036087;28;20457;-72
2023/04/09 08:49:28;;;;;;;27.40;18.20;;;;;;;;;;5034659;28;20553;-71
2023/04/09 08:51:56;;;;;;;33.67;17.47;;;;;;;;;;5049267;28;20817;-72
2023/04/09 08:54:27;;;;;;;27.03;16.00;;;;;;;;;;5037362;28;20516;-71
2023/04/09 08:56:56;;;;;;;29.83;17.10;;;;;;;;;;5051224;28;20466;-71
2023/04/09 08:59:25;;;;;;;30.87;17.40;;;;;;;;;;5040651;28;20558;-71
2023/04/09 09:04:47;;;;;;;28.33;17.10;;;;;;;;;;5142535;27;20676;-71
2023/04/09 09:07:18;;;;;;;29.50;17.70;;;;;;;;;;5131037;27;20518;-72
2023/04/09 09:09:52;;;;;;;30.50;18.63;;;;;;;;;;5139848;27;20803;-71
2023/04/09 09:12:39;;;;;;;28.57;16.20;;;;;;;;;;5129516;28;20446;-70
2023/04/09 09:18:09;;;;;;;25.13;16.63;;;;;;;;;;5130354;28;20462;-71
2023/04/09 09:20:54;;;;;;;25.17;17.40;;;;;;;;;;5131301;28;20447;-72
2023/04/09 09:23:37;;;;;;;27.20;16.70;;;;;;;;;;5127740;27;20478;-71
2023/04/09 09:28:57;;;;;;;28.30;17.80;;;;;;;;;;5128653;27;20550;-70
2023/04/09 09:31:25;;;;;;;23.17;16.63;;;;;;;;;;5128638;27;20459;-70
2023/04/09 09:33:53;;;;;;;29.97;17.07;;;;;;;;;;5123999;27;20482;-70
2023/04/09 09:36:31;;;;;;;29.30;17.17;;;;;;;;;;5107040;28;20462;-70
2023/04/09 09:39:02;;;;;;;27.10;18.47;;;;;;;;;;5107024;28;20451;-71
2023/04/09 09:41:33;;;;;;;27.53;15.87;;;;;;;;;;5124838;28;20451;-71
2023/04/09 09:44:03;;;;;;;26.20;17.80;;;;;;;;;;5129397;28;20488;-71
2023/04/09 09:46:32;;;;;;;29.17;17.30;;;;;;;;;;5128704;27;20454;-71
2023/04/09 09:49:00;;;;;;;19.80;14.63;;;;;;;;;;5126430;27;20489;-71
2023/04/09 09:51:33;;;;;;;22.90;16.20;;;;;;;;;;5127975;27;20462;-72
2023/04/09 09:54:04;;;;;;;25.23;16.50;;;;;;;;;;5124761;27;20503;-70
2023/04/09 09:56:33;;;;;;;26.03;17.10;;;;;;;;;;5121845;28;20873;-70
2023/04/09 09:59:09;;;;;;;23.23;15.60;;;;;;;;;;5126449;27;20597;-71
2023/04/09 10:01:36;;;;;;;23.60;15.70;;;;;;;;;;5123772;27;20580;-70
2023/04/09 10:04:12;;;;;;;26.83;16.20;;;;;;;;;;5125088;27;20893;-70
2023/04/09 10:06:41;;;;;;;23.93;15.60;;;;;;;;;;5126328;28;20805;-71
2023/04/09 10:09:11;;;;;;;25.70;15.70;;;;;;;;;;5128139;27;20442;-71
2023/04/09 10:11:44;;;;;;;25.50;16.80;;;;;;;;;;5126312;28;20455;-70
2023/04/09 10:14:11;;;;;;;23.43;16.73;;;;;;;;;;5126701;27;20538;-70
2023/04/09 10:16:39;;;;;;;21.80;15.03;;;;;;;;;;5114650;28;20527;-70
2023/04/09 10:19:12;;;;;;;24.57;15.23;;;;;;;;;;5112664;28;21040;-71
2023/04/09 10:21:43;;;;;;;23.10;16.13;;;;;;;;;;5117159;28;20563;-70
2023/04/09 10:24:14;;;;;;;22.60;15.00;;;;;;;;;;5114028;28;20487;-71
2023/04/09 10:26:43;;;;;;;22.77;14.23;;;;;;;;;;5115415;28;20447;-71
2023/04/09 10:29:13;;;;;;;24.40;15.27;;;;;;;;;;5115230;28;20842;-70
2023/04/09 10:31:55;;;;;;;26.00;16.20;;;;;;;;;;5115713;28;20806;-72
2023/04/09 10:34:26;;;;;;;27.90;16.27;;;;;;;;;;5115588;28;20743;-71
2023/04/09 10:36:56;;;;;;;23.87;13.47;;;;;;;;;;5116624;28;20509;-71
2023/04/09 10:39:28;;;;;;;25.10;16.40;;;;;;;;;;5116661;28;20443;-72
2023/04/09 10:42:01;;;;;;;20.50;13.80;;;;;;;;;;5115234;27;20462;-72
2023/04/09 10:47:56;;;;;;;24.70;14.90;;;;;;;;;;5112553;28;20552;-72
2023/04/09 10:50:31;;;;;;;27.63;14.93;;;;;;;;;;5113122;28;20535;-72
2023/04/09 10:53:00;;;;;;;19.87;13.23;;;;;;;;;;5112785;28;20520;-73
2023/04/09 10:55:34;;;;;;;19.50;13.50;;;;;;;;;;5115623;28;20583;-73
2023/04/09 10:58:03;;;;;;;22.67;14.70;;;;;;;;;;5113174;27;21111;-73
2023/04/09 11:00:30;;;;;;;21.73;14.60;;;;;;;;;;5116350;27;20431;-73
2023/04/09 11:03:14;;;;;;;23.00;15.33;;;;;;;;;;5109047;28;20489;-73
2023/04/09 11:06:08;;;;;;;25.70;14.77;;;;;;;;;;5113824;28;20968;-72
2023/04/09 11:08:36;;;;;;;19.17;13.37;;;;;;;;;;5109345;28;20443;-73
2023/04/09 11:11:07;;;;;;;21.87;14.20;;;;;;;;;;5115362;28;20979;-72
2023/04/09 11:13:42;;;;;;;18.47;14.13;;;;;;;;;;5111405;28;20490;-72
2023/04/09 11:16:09;;;;;;;18.27;12.77;;;;;;;;;;5114689;28;20850;-72
2023/04/09 11:18:38;;;;;;;18.93;13.03;;;;;;;;;;5112203;28;20452;-74
2023/04/09 11:21:05;;;;;;;20.83;14.33;;;;;;;;;;5114531;28;20462;-72
2023/04/09 11:23:38;;;;;;;21.77;14.77;;;;;;;;;;5113483;28;20563;-72
2023/04/09 11:26:09;;;;;;;18.67;13.37;;;;;;;;;;5112017;28;20855;-72
2023/04/09 11:28:38;;;;;;;26.17;18.13;;;;;;;;;;5113168;28;20515;-73
2023/04/09 11:31:06;;;;;;;28.80;14.43;;;;;;;;;;5114280;28;20520;-74
2023/04/09 11:33:37;;;;;;;23.17;14.93;;;;;;;;;;5112835;28;20455;-72
2023/04/09 11:36:08;;;;;;;23.40;14.20;;;;;;;;;;5111190;27;20601;-73
2023/04/09 11:38:40;;;;;;;20.13;14.20;;;;;;;;;;5111536;28;20473;-73
2023/04/09 11:41:15;;;;;;;19.97;14.53;;;;;;;;;;5109459;28;20478;-72
2023/04/09 11:43:46;;;;;;;18.40;13.00;;;;;;;;;;5108135;27;20528;-73
2023/04/09 11:46:16;;;;;;;21.70;14.80;;;;;;;;;;5095885;28;20508;-72
2023/04/09 11:48:53;;;;;;;17.60;13.13;;;;;;;;;;5106415;28;20516;-71
2023/04/09 11:51:26;;;;;;;22.03;13.70;;;;;;;;;;5128195;27;20450;-71
2023/04/09 11:53:57;;;;;;;22.27;13.63;;;;;;;;;;5114893;27;20444;-72
2023/04/09 11:56:26;;;;;;;19.57;13.90;;;;;;;;;;5114102;28;20455;-73
2023/04/09 11:58:58;;;;;;;20.67;14.13;;;;;;;;;;5114818;27;20451;-73
2023/04/09 12:01:28;;;;;;;19.23;13.47;;;;;;;;;;5115088;28;20446;-73
2023/04/09 12:03:56;;;;;;;20.10;15.23;;;;;;;;;;5112427;28;20479;-73
2023/04/09 12:06:27;;;;;;;19.20;13.00;;;;;;;;;;5116370;28;20881;-72
2023/04/09 12:08:55;;;;;;;17.23;12.90;;;;;;;;;;5114507;28;20462;-72
2023/04/09 12:11:28;;;;;;;17.00;12.93;;;;;;;;;;5113500;28;20815;-72
2023/04/09 12:14:01;;;;;;;19.57;13.57;;;;;;;;;;5113973;28;20431;-71
2023/04/09 12:16:31;;;;;;;21.23;14.17;;;;;;;;;;5106941;28;20452;-72
2023/04/09 12:19:02;;;;;;;19.93;14.10;;;;;;;;;;5106458;28;20523;-72
2023/04/09 12:21:46;;;;;;;18.37;13.00;;;;;;;;;;5113065;28;20451;-72
2023/04/09 12:24:14;;;;;;;18.40;13.53;;;;;;;;;;5090691;28;20524;-71
2023/04/09 12:26:41;;;;;;;22.13;14.43;;;;;;;;;;5089868;28;20473;-72
2023/04/09 12:29:13;;;;;;;17.90;13.43;;;;;;;;;;5091203;28;20889;-72
2023/04/09 12:31:40;;;;;;;18.13;13.00;;;;;;;;;;5092195;28;21067;-72
2023/04/09 12:34:07;;;;;;;18.90;13.37;;;;;;;;;;5098538;27;20901;-72
2023/04/09 12:36:35;;;;;;;17.53;13.40;;;;;;;;;;5115965;27;20466;-72
2023/04/09 12:39:02;;;;;;;18.23;13.10;;;;;;;;;;5116368;27;20515;-72
2023/04/09 12:41:30;;;;;;;21.07;13.57;;;;;;;;;;5114896;28;20760;-72
2023/04/09 12:44:06;;;;;;;21.00;15.20;;;;;;;;;;5118334;27;20645;-72
2023/04/09 12:46:36;;;;;;;18.07;14.20;;;;;;;;;;5133761;27;20457;-72
2023/04/09 12:49:04;;;;;;;18.17;14.47;;;;;;;;;;5122062;27;20459;-72
2023/04/09 12:51:32;;;;;;;17.77;13.60;;;;;;;;;;5112842;28;20452;-73
2023/04/09 12:54:02;;;;;;;19.60;13.33;;;;;;;;;;5113309;28;20451;-71
2023/04/09 12:56:30;;;;;;;17.70;13.87;;;;;;;;;;5111199;28;20459;-71
2023/04/09 12:58:58;;;;;;;17.53;13.43;;;;;;;;;;5110348;28;20471;-71
2023/04/09 13:01:28;;;;;;;18.60;12.97;;;;;;;;;;5106864;28;20466;-72
2023/04/09 13:04:07;;;;;;;18.17;14.03;;;;;;;;;;5102096;28;20545;-71
2023/04/09 13:06:35;;;;;;;19.23;12.97;;;;;;;;;;5098162;28;20850;-72
2023/04/09 13:09:10;;;;;;;19.77;12.73;;;;;;;;;;5111102;28;20811;-72
2023/04/09 13:11:40;;;;;;;20.37;15.10;;;;;;;;;;5111178;28;20478;-73
2023/04/09 13:14:12;;;;;;;16.53;12.17;;;;;;;;;;5110038;28;20953;-73
2023/04/09 13:16:42;;;;;;;17.23;13.40;;;;;;;;;;5109162;28;20742;-73
2023/04/09 13:19:18;;;;;;;18.83;13.33;;;;;;;;;;5107340;28;20455;-71
2023/04/09 13:21:48;;;;;;;22.67;14.20;;;;;;;;;;5098935;28;20463;-72
2023/04/09 13:24:20;;;;;;;16.33;12.90;;;;;;;;;;5105991;28;20543;-71
2023/04/09 13:26:47;;;;;;;18.60;14.33;;;;;;;;;;5103679;28;20459;-71
2023/04/09 13:29:16;;;;;;;18.03;11.67;;;;;;;;;;5108265;28;20568;-72
2023/04/09 13:31:46;;;;;;;17.60;12.97;;;;;;;;;;5111030;28;20462;-71
2023/04/09 13:34:15;;;;;;;17.37;10.37;;;;;;;;;;5111857;28;20455;-71
2023/04/09 13:36:44;;;;;;;14.17;10.40;;;;;;;;;;5112428;28;20445;-69
2023/04/09 13:39:12;;;;;;;14.50;9.93;;;;;;;;;;5112548;28;20455;-71
2023/04/09 13:41:40;;;;;;;13.70;10.33;;;;;;;;;;5113630;28;20470;-71
2023/04/09 13:44:15;;;;;;;14.60;10.80;;;;;;;;;;5108143;28;20544;-73
2023/04/09 13:46:49;;;;;;;12.77;9.47;;;;;;;;;;5099274;28;20464;-71
2023/04/09 13:49:56;;;;;;;;;;;;;;;;;;;;;
2023/04/09 13:52:31;;;;;;;13.50;9.30;;;;;;;;;;5115284;28;20549;-71
2023/04/09 13:55:05;;;;;;;14.20;10.53;;;;;;;;;;5109611;28;20451;-71
2023/04/09 13:57:36;;;;;;;13.50;9.40;;;;;;;;;;5102693;28;20755;-72
2023/04/09 14:00:07;;;;;;;16.60;11.83;;;;;;;;;;5099087;28;20440;-71
2023/04/09 14:02:36;;;;;;;11.80;9.27;;;;;;;;;;5096598;28;20619;-71
2023/04/09 14:05:18;;;;;;;11.50;8.60;;;;;;;;;;5106367;28;20904;-71
2023/04/09 14:07:46;;;;;;;15.80;10.80;;;;;;;;;;5111441;28;20542;-71
2023/04/09 14:10:17;;;;;;;12.97;9.97;;;;;;;;;;5061768;27;20489;-71
2023/04/09 14:12:45;;;;;;;11.60;9.57;;;;;;;;;;5051798;27;20461;-71
2023/04/09 14:15:22;;;;;;;11.97;8.87;;;;;;;;;;5052957;27;20446;-71
2023/04/09 14:17:50;;;;;;;10.90;7.90;;;;;;;;;;5037739;28;20462;-71
2023/04/09 14:20:31;;;;;;;11.50;7.67;;;;;;;;;;5034069;28;20438;-72
2023/04/09 14:23:05;;;;;;;13.97;7.80;;;;;;;;;;5032650;28;20531;-72
2023/04/09 14:25:37;;;;;;;12.30;8.87;;;;;;;;;;5047267;27;20488;-72
2023/04/09 14:28:38;;;;;;;14.70;9.90;;;;;;;;;;5052330;27;20494;-73
2023/04/09 14:31:50;;;;;;;11.57;9.07;;;;;;;;;;5050897;27;20451;-72
2023/04/09 14:34:32;;;;;;;15.00;10.30;;;;;;;;;;5036447;27;20971;-71
2023/04/09 14:37:08;;;;;;;14.07;9.40;;;;;;;;;;5051240;27;20513;-72
2023/04/09 14:39:37;;;;;;;14.50;10.50;;;;;;;;;;5052601;27;20563;-70
2023/04/09 14:42:10;;;;;;;13.87;10.00;;;;;;;;;;5047100;27;20880;-72
2023/04/09 14:44:37;;;;;;;11.90;8.00;;;;;;;;;;5052011;27;20496;-71
2023/04/09 14:47:16;;;;;;;12.27;8.07;;;;;;;;;;5052913;27;20531;-69
2023/04/09 14:49:45;;;;;;;14.23;10.00;;;;;;;;;;5059881;27;20442;-71